createdAt,value
2023-02-27T00:00:01.236Z,38.49
2023-02-27T00:02:29.049Z,38.39
2023-02-27T00:04:58.277Z,38.57
2023-02-27T00:07:26.306Z,38.49
2023-02-27T00:09:54.230Z,38.77
2023-02-27T00:12:22.148Z,38.82
2023-02-27T00:14:51.560Z,38.92
2023-02-27T00:17:19.985Z,38.91
2023-02-27T00:19:47.942Z,39.77
2023-02-27T00:22:15.904Z,40.30
2023-02-27T00:24:43.867Z,40.77
2023-02-27T00:27:11.739Z,41.29
2023-02-27T00:29:39.969Z,42.25
2023-02-27T00:32:08.052Z,43.53
2023-02-27T00:34:36.169Z,44.16
2023-02-27T00:37:04.261Z,44.93
2023-02-27T00:39:32.328Z,44.66
2023-02-27T00:42:00.207Z,44.93
2023-02-27T00:44:28.116Z,45.06
2023-02-27T00:46:56.044Z,45.80
2023-02-27T00:49:25.584Z,45.64
2023-02-27T00:51:54.115Z,45.47
2023-02-27T00:54:22.115Z,46.10
2023-02-27T00:56:50.212Z,46.16
2023-02-27T00:59:18.244Z,46.00
2023-02-27T01:01:46.513Z,46.10
2023-02-27T01:04:14.669Z,46.25
2023-02-27T01:06:42.607Z,46.30
2023-02-27T01:09:10.538Z,46.21
2023-02-27T01:11:38.637Z,46.49
2023-02-27T01:14:06.769Z,46.51
2023-02-27T01:16:34.775Z,46.02
2023-02-27T01:19:03.080Z,45.92
2023-02-27T01:21:30.941Z,46.19
2023-02-27T01:23:58.894Z,45.75
2023-02-27T01:26:26.780Z,45.81
2023-02-27T01:28:54.902Z,46.26
2023-02-27T01:31:22.891Z,46.24
2023-02-27T01:33:51.006Z,46.31
2023-02-27T01:36:19.012Z,45.96
2023-02-27T01:38:47.098Z,45.82
2023-02-27T01:41:15.036Z,45.40
2023-02-27T01:44:02.324Z,46.08
2023-02-27T01:46:32.441Z,45.98
2023-02-27T01:49:03.806Z,45.79
2023-02-27T01:51:42.442Z,45.83
2023-02-27T01:54:12.701Z,45.58
2023-02-27T01:56:42.899Z,45.65
2023-02-27T01:59:12.336Z,45.62
2023-02-27T02:01:40.331Z,45.81
2023-02-27T02:04:27.787Z,45.92
2023-02-27T02:07:04.926Z,45.46
2023-02-27T02:09:37.822Z,45.36
2023-02-27T02:12:06.433Z,45.55
2023-02-27T02:14:34.423Z,45.47
2023-02-27T02:17:24.440Z,45.31
2023-02-27T02:20:23.220Z,45.40
2023-02-27T02:23:09.931Z,45.84
2023-02-27T02:26:15.156Z,45.86
2023-02-27T02:29:16.765Z,45.69
2023-02-27T02:31:54.046Z,45.66
2023-02-27T02:34:33.239Z,45.56
2023-02-27T02:37:19.361Z,45.42
2023-02-27T02:40:17.673Z,45.26
2023-02-27T02:42:56.299Z,45.05
2023-02-27T02:45:50.132Z,45.27
2023-02-27T02:48:20.971Z,45.13
2023-02-27T02:51:13.451Z,45.30
2023-02-27T02:53:53.609Z,44.97
2023-02-27T02:56:54.804Z,44.83
2023-02-27T02:59:25.812Z,44.74
2023-02-27T03:02:02.860Z,44.77
2023-02-27T03:04:42.288Z,44.55
2023-02-27T03:07:22.540Z,44.11
2023-02-27T03:10:15.000Z,44.75
2023-02-27T03:12:53.213Z,44.63
2023-02-27T03:15:29.408Z,43.86
2023-02-27T03:18:07.457Z,44.11
2023-02-27T03:20:44.022Z,44.24
2023-02-27T03:23:18.508Z,44.32
2023-02-27T03:25:47.519Z,43.99
2023-02-27T03:28:22.360Z,44.41
2023-02-27T03:31:01.856Z,45.06
2023-02-27T03:33:43.319Z,45.00
2023-02-27T03:36:27.792Z,45.39
2023-02-27T03:39:06.632Z,44.98
2023-02-27T03:41:44.427Z,44.74
2023-02-27T03:44:56.587Z,45.18
2023-02-27T03:47:25.459Z,44.68
2023-02-27T03:49:53.433Z,44.46
2023-02-27T03:52:22.808Z,44.57
2023-02-27T03:55:16.278Z,44.57
2023-02-27T03:57:46.973Z,44.01
2023-02-27T04:00:19.291Z,44.07
2023-02-27T04:02:51.557Z,43.75
2023-02-27T04:05:23.575Z,43.29
2023-02-27T04:08:15.215Z,43.64
2023-02-27T04:11:17.175Z,42.74
2023-02-27T04:14:01.653Z,43.05
2023-02-27T04:16:50.633Z,42.82
2023-02-27T04:19:59.568Z,42.43
2023-02-27T04:22:37.570Z,42.23
2023-02-27T04:25:32.157Z,42.36
2023-02-27T04:28:38.525Z,42.33
2023-02-27T04:31:32.386Z,42.44
2023-02-27T04:34:03.595Z,42.13
2023-02-27T04:36:36.811Z,42.49
2023-02-27T04:39:04.450Z,42.27
2023-02-27T04:41:42.112Z,42.18
2023-02-27T04:44:12.201Z,42.52
2023-02-27T04:46:43.880Z,42.55
2023-02-27T04:49:26.756Z,42.67
2023-02-27T04:52:06.805Z,42.25
2023-02-27T04:54:50.615Z,41.98
2023-02-27T04:57:28.190Z,41.88
2023-02-27T04:59:58.503Z,42.01
2023-02-27T05:02:40.852Z,41.79
2023-02-27T05:05:17.203Z,41.17
2023-02-27T05:07:52.848Z,41.74
2023-02-27T05:10:32.854Z,41.32
2023-02-27T05:13:09.797Z,41.99
2023-02-27T05:15:53.329Z,42.07
2023-02-27T05:18:22.434Z,41.81
2023-02-27T05:21:35.039Z,41.84
2023-02-27T05:24:24.350Z,42.46
2023-02-27T05:27:05.164Z,42.08
2023-02-27T05:29:51.836Z,41.20
2023-02-27T05:32:38.170Z,41.67
2023-02-27T05:35:42.927Z,41.47
2023-02-27T05:38:26.152Z,40.74
2023-02-27T05:41:33.740Z,41.01
2023-02-27T05:44:16.721Z,41.55
2023-02-27T05:46:59.217Z,41.31
2023-02-27T05:49:30.909Z,41.28
2023-02-27T05:52:03.358Z,41.21
2023-02-27T05:54:50.596Z,40.60
2023-02-27T05:57:42.421Z,40.53
2023-02-27T06:00:20.492Z,40.42
2023-02-27T06:02:48.779Z,40.40
2023-02-27T06:05:19.391Z,40.18
2023-02-27T06:07:47.381Z,40.00
2023-02-27T06:10:17.296Z,40.20
2023-02-27T06:12:45.492Z,40.27
2023-02-27T06:15:13.644Z,40.27
2023-02-27T06:17:41.648Z,40.43
2023-02-27T06:20:10.275Z,40.78
2023-02-27T06:22:38.193Z,40.55
2023-02-27T06:25:06.706Z,40.58
2023-02-27T06:27:34.756Z,40.63
2023-02-27T06:30:02.776Z,40.26
2023-02-27T06:32:31.360Z,40.38
2023-02-27T06:34:59.361Z,39.99
2023-02-27T06:37:27.400Z,40.01
2023-02-27T06:39:55.299Z,39.89
2023-02-27T06:42:23.272Z,39.90
2023-02-27T06:44:51.327Z,39.91
2023-02-27T06:47:19.295Z,39.98
2023-02-27T06:49:47.344Z,40.25
2023-02-27T06:52:15.314Z,40.15
2023-02-27T06:54:43.379Z,39.75
2023-02-27T06:57:11.567Z,39.76
2023-02-27T06:59:39.463Z,39.30
2023-02-27T07:02:07.794Z,39.10
2023-02-27T07:04:35.717Z,39.17
2023-02-27T07:07:33.908Z,39.86
2023-02-27T07:09:51.778Z,39.83
2023-02-27T07:12:19.691Z,40.47
2023-02-27T07:14:47.692Z,40.14
2023-02-27T07:17:15.603Z,40.90
2023-02-27T07:19:43.582Z,40.81
2023-02-27T07:22:11.856Z,41.17
2023-02-27T07:24:39.815Z,41.14
2023-02-27T07:27:07.896Z,40.92
2023-02-27T07:29:36.275Z,41.92
2023-02-27T07:32:04.467Z,41.29
2023-02-27T07:34:32.852Z,40.72
2023-02-27T07:37:00.843Z,40.08
2023-02-27T07:39:28.874Z,40.09
2023-02-27T07:41:56.808Z,40.92
2023-02-27T07:44:24.804Z,40.41
2023-02-27T07:46:52.897Z,40.58
2023-02-27T07:49:20.976Z,39.99
2023-02-27T07:51:49.157Z,39.46
2023-02-27T07:54:17.296Z,39.64
2023-02-27T07:56:45.328Z,39.20
2023-02-27T07:59:13.392Z,39.64
2023-02-27T08:01:41.368Z,38.92
2023-02-27T08:04:09.625Z,39.07
2023-02-27T08:06:37.591Z,39.01
2023-02-27T08:09:06.338Z,38.71
2023-02-27T08:11:34.488Z,38.25
2023-02-27T08:14:03.053Z,38.50
2023-02-27T08:16:32.466Z,38.30
2023-02-27T08:19:01.129Z,38.05
2023-02-27T08:21:29.559Z,38.31
2023-02-27T08:23:57.816Z,38.14
2023-02-27T08:26:26.096Z,38.17
2023-02-27T08:28:54.368Z,38.17
2023-02-27T08:31:22.463Z,37.54
2023-02-27T08:33:58.034Z,37.59
2023-02-27T08:36:36.130Z,37.35
2023-02-27T08:39:04.575Z,36.98
2023-02-27T08:41:32.877Z,37.52
2023-02-27T08:44:01.388Z,36.96
2023-02-27T08:46:29.798Z,36.49
2023-02-27T08:48:58.030Z,36.60
2023-02-27T08:51:26.402Z,37.06
2023-02-27T08:53:59.231Z,36.76
2023-02-27T08:56:28.319Z,36.67
2023-02-27T08:58:56.612Z,36.64
2023-02-27T09:01:28.856Z,35.92
2023-02-27T09:03:57.818Z,35.94
2023-02-27T09:06:26.416Z,35.53
2023-02-27T09:08:54.636Z,36.27
2023-02-27T09:11:23.089Z,35.61
2023-02-27T09:13:52.057Z,35.04
2023-02-27T09:16:21.565Z,35.64
2023-02-27T09:18:50.438Z,35.31
2023-02-27T09:21:18.645Z,34.76
2023-02-27T09:23:46.940Z,34.79
2023-02-27T09:26:16.366Z,34.85
2023-02-27T09:28:44.738Z,34.44
2023-02-27T09:31:13.608Z,34.08
2023-02-27T09:33:41.635Z,34.39
2023-02-27T09:36:09.757Z,34.88
2023-02-27T09:38:40.990Z,34.34
2023-02-27T09:41:40.873Z,34.52
2023-02-27T09:44:46.774Z,33.82
2023-02-27T09:47:25.207Z,33.99
2023-02-27T09:50:07.755Z,33.80
2023-02-27T09:52:37.801Z,33.02
2023-02-27T09:55:17.686Z,33.09
2023-02-27T09:58:17.775Z,33.07
2023-02-27T10:01:10.258Z,33.08
2023-02-27T10:03:57.615Z,32.72
2023-02-27T10:06:39.036Z,33.32
2023-02-27T10:09:18.102Z,32.53
2023-02-27T10:11:55.313Z,32.88
2023-02-27T10:14:52.406Z,32.34
2023-02-27T10:17:32.089Z,31.89
2023-02-27T10:20:04.828Z,31.03
2023-02-27T10:22:41.397Z,30.83
2023-02-27T10:25:30.307Z,31.34
2023-02-27T10:28:11.429Z,31.20
2023-02-27T10:30:39.976Z,31.12
2023-02-27T10:33:16.896Z,30.18
2023-02-27T10:35:46.319Z,30.15
2023-02-27T10:38:27.321Z,29.65
2023-02-27T10:40:58.219Z,29.50
2023-02-27T10:43:26.519Z,29.00
2023-02-27T10:45:54.865Z,27.96
2023-02-27T10:48:25.578Z,26.61
2023-02-27T10:50:53.615Z,26.24
2023-02-27T10:53:27.493Z,26.94
2023-02-27T10:56:02.980Z,26.65
2023-02-27T10:58:34.662Z,26.84
2023-02-27T11:01:06.277Z,27.12
2023-02-27T11:03:40.627Z,26.26
2023-02-27T11:06:27.242Z,26.38
2023-02-27T11:09:22.544Z,26.72
2023-02-27T11:11:52.202Z,26.23
2023-02-27T11:14:25.537Z,26.15
2023-02-27T11:16:56.348Z,26.34
2023-02-27T11:19:37.237Z,26.89
2023-02-27T11:22:20.256Z,26.03
2023-02-27T11:24:48.516Z,25.46
2023-02-27T11:27:30.934Z,24.88
2023-02-27T11:30:07.665Z,24.90
2023-02-27T11:32:51.606Z,24.45
2023-02-27T11:35:28.654Z,25.09
2023-02-27T11:38:00.678Z,25.09
2023-02-27T11:40:50.628Z,24.64
2023-02-27T11:43:31.518Z,24.86
2023-02-27T11:46:46.781Z,25.14
2023-02-27T11:49:30.758Z,24.43
2023-02-27T11:52:07.073Z,24.44
2023-02-27T11:54:58.240Z,25.00
2023-02-27T11:57:34.460Z,24.82
2023-02-27T12:00:28.752Z,24.84
2023-02-27T12:03:21.346Z,24.85
2023-02-27T12:06:16.518Z,23.63
2023-02-27T12:08:59.820Z,23.79
2023-02-27T12:11:34.629Z,21.97
2023-02-27T12:14:17.597Z,21.43
2023-02-27T12:17:08.999Z,20.78
2023-02-27T12:19:44.579Z,19.92
2023-02-27T12:22:24.249Z,19.26
2023-02-27T12:24:59.618Z,20.67
2023-02-27T12:27:54.798Z,19.82
2023-02-27T12:30:27.776Z,20.23
2023-02-27T12:33:25.700Z,19.51
2023-02-27T12:36:00.295Z,18.59
2023-02-27T12:38:29.013Z,18.64
2023-02-27T12:41:14.724Z,18.92
2023-02-27T12:44:01.101Z,17.70
2023-02-27T12:46:52.782Z,18.55
2023-02-27T12:49:37.193Z,19.31
2023-02-27T12:52:05.072Z,19.02
2023-02-27T12:54:48.195Z,19.61
2023-02-27T12:57:32.498Z,20.47
2023-02-27T13:00:10.217Z,21.39
2023-02-27T13:02:47.340Z,21.95
2023-02-27T13:05:34.594Z,22.37
2023-02-27T13:08:28.801Z,22.15
2023-02-27T13:11:18.835Z,21.28
2023-02-27T13:13:55.437Z,20.53
2023-02-27T13:16:31.921Z,20.59
2023-02-27T13:19:11.904Z,20.71
2023-02-27T13:21:40.279Z,21.02
2023-02-27T13:24:29.649Z,20.90
2023-02-27T13:26:57.772Z,23.27
2023-02-27T13:29:39.833Z,23.76
2023-02-27T13:32:13.899Z,23.22
2023-02-27T13:35:00.139Z,21.98
2023-02-27T13:37:52.322Z,21.70
2023-02-27T13:40:32.103Z,21.37
2023-02-27T13:43:06.929Z,20.61
2023-02-27T13:45:51.913Z,21.43
2023-02-27T13:48:43.367Z,22.36
2023-02-27T13:51:43.558Z,22.62
2023-02-27T13:54:15.405Z,23.39
2023-02-27T13:57:05.788Z,23.24
2023-02-27T13:59:42.104Z,24.25
2023-02-27T14:02:09.980Z,24.90
2023-02-27T14:04:53.050Z,25.40
2023-02-27T14:07:53.544Z,26.51
2023-02-27T14:10:25.261Z,27.97
2023-02-27T14:12:59.232Z,28.21
2023-02-27T14:15:34.904Z,27.32
2023-02-27T14:18:16.028Z,27.64
2023-02-27T14:20:51.412Z,27.30
2023-02-27T14:23:25.825Z,28.23
2023-02-27T14:26:00.773Z,28.40
2023-02-27T14:28:31.344Z,28.16
2023-02-27T14:31:06.403Z,28.54
2023-02-27T14:33:48.480Z,27.93
2023-02-27T14:36:22.434Z,29.79
2023-02-27T14:38:55.935Z,29.63
2023-02-27T14:41:50.524Z,28.36
2023-02-27T14:44:28.252Z,28.77
2023-02-27T14:46:59.373Z,28.69
2023-02-27T14:49:33.167Z,28.89
2023-02-27T14:52:24.595Z,29.03
2023-02-27T14:55:06.025Z,28.80
2023-02-27T14:57:34.092Z,28.92
2023-02-27T15:00:02.207Z,29.76
2023-02-27T15:02:35.219Z,30.15
2023-02-27T15:05:03.450Z,29.79
2023-02-27T15:07:34.725Z,29.18
2023-02-27T15:10:06.375Z,28.82
2023-02-27T15:12:38.580Z,29.17
2023-02-27T15:15:09.187Z,28.65
2023-02-27T15:17:42.346Z,28.62
2023-02-27T15:20:36.213Z,28.81
2023-02-27T15:23:24.393Z,28.98
2023-02-27T15:25:58.861Z,28.64
2023-02-27T15:28:38.775Z,29.02
2023-02-27T15:31:12.906Z,28.93
2023-02-27T15:33:43.138Z,29.78
2023-02-27T15:36:31.875Z,29.21
2023-02-27T15:39:03.698Z,29.37
2023-02-27T15:41:32.162Z,29.26
2023-02-27T15:44:01.842Z,29.16
2023-02-27T15:46:30.359Z,29.12
2023-02-27T15:48:58.822Z,28.71
2023-02-27T15:51:28.176Z,28.76
2023-02-27T15:54:00.510Z,28.94
2023-02-27T15:56:39.061Z,29.16
2023-02-27T15:59:07.750Z,29.41
2023-02-27T16:01:36.004Z,29.20
2023-02-27T16:04:07.237Z,29.38
2023-02-27T16:06:39.596Z,29.62
2023-02-27T16:09:23.386Z,29.68
2023-02-27T16:12:23.121Z,29.95
2023-02-27T16:14:53.794Z,30.06
2023-02-27T16:17:33.463Z,30.02
2023-02-27T16:20:23.155Z,30.20
2023-02-27T16:23:06.302Z,30.29
2023-02-27T16:25:34.260Z,30.74
2023-02-27T16:28:02.258Z,31.16
2023-02-27T16:30:30.296Z,30.60
2023-02-27T16:33:01.155Z,30.99
2023-02-27T16:35:29.664Z,31.13
2023-02-27T16:38:02.617Z,31.17
2023-02-27T16:40:30.668Z,31.32
2023-02-27T16:42:59.321Z,31.31
2023-02-27T16:45:29.488Z,31.89
2023-02-27T16:47:59.398Z,32.08
2023-02-27T16:50:31.747Z,32.03
2023-02-27T16:52:59.914Z,32.49
2023-02-27T16:55:29.076Z,32.21
2023-02-27T16:57:57.017Z,32.89
2023-02-27T17:00:25.226Z,33.26
2023-02-27T17:02:53.207Z,33.69
2023-02-27T17:05:21.201Z,32.86
2023-02-27T17:07:49.119Z,33.27
2023-02-27T17:10:20.086Z,33.05
2023-02-27T17:12:49.466Z,33.07
2023-02-27T17:15:18.010Z,33.98
2023-02-27T17:17:46.021Z,33.70
2023-02-27T17:20:14.818Z,33.78
2023-02-27T17:22:45.154Z,34.14
2023-02-27T17:25:14.392Z,34.28
2023-02-27T17:27:43.769Z,33.83
2023-02-27T17:30:12.850Z,34.45
2023-02-27T17:32:40.736Z,34.19
2023-02-27T17:35:09.561Z,34.51
2023-02-27T17:37:37.882Z,34.67
2023-02-27T17:40:08.423Z,34.89
2023-02-27T17:42:37.396Z,34.36
2023-02-27T17:45:07.389Z,35.46
2023-02-27T17:47:35.922Z,35.00
2023-02-27T17:50:05.388Z,35.04
2023-02-27T17:52:36.982Z,35.41
2023-02-27T17:55:06.110Z,35.42
2023-02-27T17:57:38.178Z,35.62
2023-02-27T18:00:09.181Z,35.67
2023-02-27T18:02:37.369Z,36.02
2023-02-27T18:05:06.750Z,36.55
2023-02-27T18:07:34.948Z,35.98
2023-02-27T18:10:05.822Z,36.58
2023-02-27T18:12:34.525Z,36.97
2023-02-27T18:15:03.578Z,37.08
2023-02-27T18:17:31.779Z,36.96
2023-02-27T18:19:59.807Z,37.62
2023-02-27T18:22:30.071Z,38.08
2023-02-27T18:24:58.937Z,38.35
2023-02-27T18:27:28.232Z,38.92
2023-02-27T18:29:57.834Z,38.03
2023-02-27T18:32:25.886Z,38.32
2023-02-27T18:34:54.295Z,38.54
2023-02-27T18:37:22.243Z,38.47
2023-02-27T18:39:50.182Z,39.15
2023-02-27T18:42:18.110Z,38.88
2023-02-27T18:44:47.840Z,38.84
2023-02-27T18:47:15.769Z,38.79
2023-02-27T18:49:43.775Z,38.93
2023-02-27T18:52:11.656Z,39.84
2023-02-27T18:54:41.166Z,39.92
2023-02-27T18:57:09.567Z,39.53
2023-02-27T18:59:37.808Z,39.27
2023-02-27T19:02:05.854Z,39.26
2023-02-27T19:04:34.212Z,38.96
2023-02-27T19:07:02.580Z,39.68
2023-02-27T19:09:32.949Z,39.00
2023-02-27T19:12:01.369Z,39.55
2023-02-27T19:14:29.591Z,40.30
2023-02-27T19:17:00.598Z,39.60
2023-02-27T19:19:28.699Z,40.44
2023-02-27T19:21:56.814Z,39.78
2023-02-27T19:24:24.842Z,39.98
2023-02-27T19:26:53.608Z,40.02
2023-02-27T19:29:21.842Z,40.18
2023-02-27T19:31:50.193Z,39.79
2023-02-27T19:34:18.317Z,39.94
2023-02-27T19:36:46.389Z,39.75
2023-02-27T19:39:14.599Z,39.80
2023-02-27T19:41:42.666Z,39.73
2023-02-27T19:44:10.890Z,39.48
2023-02-27T19:46:41.177Z,39.13
2023-02-27T19:49:09.397Z,39.73
2023-02-27T19:51:37.591Z,39.30
2023-02-27T19:54:05.689Z,39.73
2023-02-27T19:56:33.729Z,39.76
2023-02-27T19:59:02.054Z,39.54
2023-02-27T20:01:32.745Z,39.42
2023-02-27T20:04:01.603Z,39.34
2023-02-27T20:06:33.351Z,40.46
2023-02-27T20:09:01.600Z,40.55
2023-02-27T20:11:31.167Z,39.79
2023-02-27T20:14:00.054Z,40.04
2023-02-27T20:16:30.888Z,40.91
2023-02-27T20:18:59.545Z,40.96
2023-02-27T20:21:28.937Z,41.22
2023-02-27T20:23:58.368Z,41.37
2023-02-27T20:26:33.237Z,41.44
2023-02-27T20:29:05.309Z,41.62
2023-02-27T20:31:36.180Z,41.44
2023-02-27T20:34:11.234Z,41.71
2023-02-27T20:36:40.335Z,41.66
2023-02-27T20:39:10.520Z,41.27
2023-02-27T20:41:40.496Z,41.87
2023-02-27T20:44:11.990Z,41.07
2023-02-27T20:46:42.666Z,41.35
2023-02-27T20:49:15.106Z,41.51
2023-02-27T20:51:44.467Z,41.61
2023-02-27T20:54:16.805Z,41.51
2023-02-27T20:56:45.479Z,41.62
2023-02-27T20:59:17.059Z,42.09
2023-02-27T21:01:53.448Z,41.66
2023-02-27T21:04:25.233Z,41.54
2023-02-27T21:06:55.216Z,41.59
2023-02-27T21:09:23.598Z,41.81
2023-02-27T21:11:51.898Z,41.44
2023-02-27T21:14:21.333Z,41.63
2023-02-27T21:16:49.568Z,41.92
2023-02-27T21:19:17.955Z,42.34
2023-02-27T21:21:46.128Z,42.12
2023-02-27T21:24:15.206Z,41.52
2023-02-27T21:26:43.660Z,41.42
2023-02-27T21:29:15.392Z,41.83
2023-02-27T21:31:45.718Z,41.85
2023-02-27T21:34:16.757Z,42.03
2023-02-27T21:36:46.605Z,41.88
2023-02-27T21:39:21.722Z,41.63
2023-02-27T21:41:51.088Z,41.90
2023-02-27T21:44:21.473Z,42.09
2023-02-27T21:46:50.094Z,42.00
2023-02-27T21:49:23.858Z,41.71
2023-02-27T21:51:52.573Z,41.85
2023-02-27T21:54:21.648Z,41.59
2023-02-27T21:56:50.171Z,41.98
2023-02-27T21:59:19.680Z,42.20
2023-02-27T22:01:48.862Z,41.92
2023-02-27T22:04:19.449Z,42.41
2023-02-27T22:06:49.471Z,42.61
2023-02-27T22:09:18.108Z,42.44
2023-02-27T22:11:46.370Z,42.17
2023-02-27T22:14:14.709Z,42.97
2023-02-27T22:16:43.472Z,42.59
2023-02-27T22:19:18.998Z,42.86
2023-02-27T22:21:47.428Z,42.63
2023-02-27T22:24:15.883Z,42.89
2023-02-27T22:26:45.104Z,42.98
2023-02-27T22:29:13.606Z,43.04
2023-02-27T22:31:41.988Z,43.17
2023-02-27T22:34:19.499Z,42.67
2023-02-27T22:36:52.739Z,42.73
2023-02-27T22:39:21.752Z,42.36
2023-02-27T22:41:50.228Z,42.88
2023-02-27T22:44:18.614Z,43.26
2023-02-27T22:46:48.974Z,42.87
2023-02-27T22:49:20.634Z,42.46
2023-02-27T22:51:52.467Z,42.66
2023-02-27T22:54:23.137Z,42.74
2023-02-27T22:56:53.530Z,43.09
2023-02-27T22:59:22.447Z,42.81
2023-02-27T23:01:50.930Z,42.49
2023-02-27T23:04:19.568Z,42.44
2023-02-27T23:06:48.039Z,41.24
2023-02-27T23:09:20.222Z,40.27
2023-02-27T23:11:48.587Z,40.28
2023-02-27T23:14:17.853Z,40.34
2023-02-27T23:16:46.967Z,40.50
2023-02-27T23:19:18.143Z,39.69
2023-02-27T23:21:46.454Z,39.87
2023-02-27T23:24:17.240Z,39.49
2023-02-27T23:26:51.192Z,39.80
2023-02-27T23:29:20.100Z,39.84
2023-02-27T23:31:48.519Z,39.98
2023-02-27T23:34:16.950Z,39.96
2023-02-27T23:36:45.252Z,39.56
2023-02-27T23:39:13.421Z,40.04
2023-02-27T23:41:41.801Z,39.51
2023-02-27T23:44:10.051Z,40.15
2023-02-27T23:46:38.360Z,39.94
2023-02-27T23:49:07.499Z,39.72
2023-02-27T23:51:36.074Z,39.71
2023-02-27T23:54:04.689Z,39.21
2023-02-27T23:56:32.874Z,39.20
2023-02-27T23:59:04.871Z,39.35
